Jose de San Martin, Argentina
Current Conditions -  °F | °C
As of 9:00 PM on Monday 24 Nov 2014 (Local Time) from SCAP Reporting Station
Clear Clear  
Wind Chill: 52°   Ceiling: Unl
Heat Index: 52°   Visibility: NA
Dew Point: 39°   Wind: 8mph
Humidity: 62%   Direction: 240°WSW
Pressure: 30.27"   Gusts: 21mph
Location:  44.03°S, 70.48°W
Report Text: SCAP 250000Z AUTO 24007G18KT 190V290 //// // NSC 11/04 Q1025
Loading
Personal Weather Stations






























Interactive Weather Map New forecast layout! Learn more

10-Day Weather Forecast

Advertisements
Track Severe Weather on mobile